Time;durP1;ratioP1;P1;durP2;ratioP2;P2;SDS_P1;SDS_P2;PMS_P1;PMS_P2;Temp;Humidity;BMP_temperature;BMP_pressure;BME280_temperature;BME280_humidity;BME280_pressure;Samples;Min_cycle;Max_cycle;Signal;HPM_P1;HPM_P2
2021/05/30 00:00:50;;;;;;;11.93;8.80;;;9.10;99.90;;;;;;5031575;28;20076;-48
2021/05/30 00:03:15;;;;;;;12.85;9.00;;;9.10;99.90;;;;;;5030283;28;20518;-48
2021/05/30 00:05:41;;;;;;;11.20;8.65;;;9.10;99.90;;;;;;5031560;28;20105;-46
2021/05/30 00:08:07;;;;;;;11.25;8.45;;;9.10;99.90;;;;;;5030944;28;20021;-48
2021/05/30 00:10:33;;;;;;;12.82;9.05;;;9.00;99.90;;;;;;5031376;28;20178;-47
2021/05/30 00:12:59;;;;;;;11.05;8.77;;;9.00;99.90;;;;;;5031499;28;20025;-47
2021/05/30 00:15:24;;;;;;;11.57;8.25;;;9.00;99.90;;;;;;5031506;28;20022;-50
2021/05/30 00:17:50;;;;;;;14.50;9.60;;;9.00;99.90;;;;;;5030964;28;20399;-47
2021/05/30 00:20:15;;;;;;;13.68;9.07;;;8.90;99.90;;;;;;5031508;28;20147;-48
2021/05/30 00:22:41;;;;;;;11.30;8.43;;;8.90;99.90;;;;;;5031325;28;20033;-47
2021/05/30 00:25:08;;;;;;;13.45;9.70;;;8.90;99.90;;;;;;5031489;28;20030;-47
2021/05/30 00:27:33;;;;;;;13.02;10.10;;;8.80;99.90;;;;;;5030743;28;20203;-47
2021/05/30 00:30:00;;;;;;;11.98;9.00;;;8.80;99.90;;;;;;5031361;28;20456;-47
2021/05/30 00:32:25;;;;;;;13.32;9.60;;;8.80;99.90;;;;;;5030985;28;20468;-47
2021/05/30 00:34:52;;;;;;;12.00;9.18;;;8.80;99.90;;;;;;5030921;28;20037;-48
2021/05/30 00:37:18;;;;;;;11.40;9.48;;;8.70;99.90;;;;;;5030692;28;20444;-49
2021/05/30 00:39:43;;;;;;;14.60;10.25;;;8.70;99.90;;;;;;5030528;28;20108;-49
2021/05/30 00:42:09;;;;;;;14.48;9.98;;;8.70;99.90;;;;;;5030895;28;20041;-47
2021/05/30 00:44:34;;;;;;;14.65;9.25;;;8.70;99.90;;;;;;5030935;28;20109;-48
2021/05/30 00:47:00;;;;;;;12.98;9.30;;;8.60;99.90;;;;;;5030499;28;20057;-49
2021/05/30 00:49:27;;;;;;;15.02;8.93;;;8.60;99.90;;;;;;5030260;28;20438;-48
2021/05/30 00:51:53;;;;;;;16.38;10.48;;;8.60;99.90;;;;;;5030722;28;20082;-49
2021/05/30 00:54:19;;;;;;;14.90;10.52;;;8.60;99.90;;;;;;5031001;28;20029;-48
2021/05/30 00:56:45;;;;;;;13.77;10.05;;;8.60;99.90;;;;;;5030843;28;20036;-48
2021/05/30 00:59:12;;;;;;;17.83;11.30;;;8.50;99.90;;;;;;5028906;28;20021;-48
2021/05/30 01:01:39;;;;;;;13.50;9.95;;;8.60;99.90;;;;;;5030842;28;20474;-47
2021/05/30 01:04:05;;;;;;;16.58;9.70;;;8.60;99.90;;;;;;5030829;28;20029;-48
2021/05/30 01:06:31;;;;;;;13.65;9.70;;;8.60;99.90;;;;;;5030785;28;20029;-49
2021/05/30 01:09:03;;;;;;;15.02;9.95;;;8.50;99.90;;;;;;5030371;28;20506;-49
2021/05/30 01:11:28;;;;;;;14.48;9.98;;;8.60;99.90;;;;;;5031172;28;20029;-49
2021/05/30 01:13:56;;;;;;;14.65;11.05;;;8.60;99.90;;;;;;5031054;28;20025;-47
2021/05/30 01:16:22;;;;;;;15.05;10.52;;;8.60;99.90;;;;;;5029528;28;20494;-47
2021/05/30 01:18:49;;;;;;;15.30;10.10;;;8.60;99.90;;;;;;5028632;28;20038;-48
2021/05/30 01:21:16;;;;;;;16.80;10.30;;;8.50;99.90;;;;;;5030236;28;20820;-48
2021/05/30 01:23:42;;;;;;;15.63;10.98;;;8.50;99.90;;;;;;5030194;28;20048;-47
2021/05/30 01:26:07;;;;;;;14.43;10.82;;;8.50;99.90;;;;;;5030270;28;20471;-49
2021/05/30 01:28:33;;;;;;;16.02;10.90;;;8.50;99.90;;;;;;5030032;28;20022;-47
2021/05/30 01:30:58;;;;;;;15.73;10.38;;;8.50;99.90;;;;;;5030176;28;20487;-47
2021/05/30 01:33:24;;;;;;;16.67;11.73;;;8.50;99.90;;;;;;5030124;28;20451;-47
2021/05/30 01:35:49;;;;;;;18.65;12.23;;;8.50;99.90;;;;;;5030306;28;20038;-47
2021/05/30 01:38:15;;;;;;;19.17;12.70;;;8.50;99.90;;;;;;5029522;28;20030;-47
2021/05/30 01:40:41;;;;;;;22.17;12.90;;;8.50;99.90;;;;;;5029810;28;20061;-47
2021/05/30 01:43:07;;;;;;;17.48;12.90;;;8.50;99.90;;;;;;5029898;28;20017;-48
2021/05/30 01:45:34;;;;;;;15.10;11.98;;;8.50;99.90;;;;;;5029925;28;20022;-49
2021/05/30 01:48:01;;;;;;;15.93;11.38;;;8.50;99.90;;;;;;5029261;28;20044;-47
2021/05/30 01:50:29;;;;;;;16.75;12.95;;;8.40;99.90;;;;;;5028159;28;20535;-47
2021/05/30 01:52:57;;;;;;;19.92;12.68;;;8.40;99.90;;;;;;5029576;28;20064;-48
2021/05/30 01:55:41;;;;;;;18.30;12.40;;;8.40;99.90;;;;;;5029689;28;20104;-47
2021/05/30 01:58:07;;;;;;;19.23;12.60;;;8.30;99.90;;;;;;5028347;28;20026;-47
2021/05/30 02:00:35;;;;;;;19.25;13.27;;;8.30;99.90;;;;;;5029457;28;20042;-47
2021/05/30 02:03:01;;;;;;;17.85;12.35;;;8.30;99.90;;;;;;5028014;28;20533;-46
2021/05/30 02:05:26;;;;;;;17.70;12.73;;;8.30;99.90;;;;;;5028900;28;20494;-49
2021/05/30 02:07:52;;;;;;;17.63;12.48;;;8.30;99.90;;;;;;5028678;28;20022;-47
2021/05/30 02:10:20;;;;;;;13.48;10.15;;;8.30;99.90;;;;;;5029644;28;20036;-49
2021/05/30 02:12:48;;;;;;;15.00;10.50;;;8.20;99.90;;;;;;5029324;28;20022;-50
2021/05/30 02:15:16;;;;;;;17.17;12.60;;;8.20;99.90;;;;;;5029860;28;20032;-47
2021/05/30 02:17:42;;;;;;;16.63;11.23;;;8.20;99.90;;;;;;5028966;28;20026;-50
2021/05/30 02:20:09;;;;;;;17.65;11.40;;;8.20;99.90;;;;;;5028091;28;20028;-47
2021/05/30 02:22:35;;;;;;;15.40;10.95;;;8.10;99.90;;;;;;5029436;28;20113;-47
2021/05/30 02:25:00;;;;;;;16.98;11.00;;;8.10;99.90;;;;;;5029080;28;20423;-47
2021/05/30 02:27:26;;;;;;;18.30;12.63;;;8.10;99.90;;;;;;5028862;28;20024;-47
2021/05/30 02:29:51;;;;;;;17.83;11.38;;;8.00;99.90;;;;;;5029238;28;20487;-47
2021/05/30 02:32:17;;;;;;;16.67;11.98;;;8.00;99.90;;;;;;5029546;28;20067;-47
2021/05/30 02:34:43;;;;;;;17.58;12.73;;;8.00;99.90;;;;;;5029407;28;20159;-47
2021/05/30 02:37:11;;;;;;;18.63;12.10;;;8.00;99.90;;;;;;5029131;28;20041;-47
2021/05/30 02:39:37;;;;;;;14.88;10.13;;;8.00;99.90;;;;;;5028979;28;20640;-48
2021/05/30 02:42:04;;;;;;;17.00;11.48;;;8.00;99.90;;;;;;5029002;28;20057;-48
2021/05/30 02:44:29;;;;;;;14.57;11.13;;;8.00;99.90;;;;;;5028897;28;20018;-47
2021/05/30 02:46:55;;;;;;;20.58;12.57;;;8.00;99.90;;;;;;5027555;28;20029;-48
2021/05/30 02:49:21;;;;;;;20.83;12.63;;;7.80;99.90;;;;;;5027027;28;20115;-50
2021/05/30 02:51:47;;;;;;;20.50;13.10;;;7.80;99.90;;;;;;5029255;28;20040;-50
2021/05/30 02:54:12;;;;;;;16.85;12.05;;;7.90;99.90;;;;;;5028968;28;20022;-48
2021/05/30 02:56:38;;;;;;;19.50;12.32;;;7.80;99.90;;;;;;5028740;28;20031;-47
2021/05/30 02:59:04;;;;;;;16.65;12.05;;;7.90;99.90;;;;;;5028556;28;20454;-49
2021/05/30 03:01:29;;;;;;;16.30;12.20;;;7.90;99.90;;;;;;5027287;28;20108;-49
2021/05/30 03:03:55;;;;;;;19.02;12.80;;;7.80;99.90;;;;;;5028962;28;20052;-48
2021/05/30 03:06:24;;;;;;;17.13;12.30;;;7.80;99.90;;;;;;5028751;28;20021;-50
2021/05/30 03:08:50;;;;;;;19.15;11.77;;;7.80;99.90;;;;;;5029136;28;20022;-48
2021/05/30 03:11:16;;;;;;;18.58;13.52;;;7.80;99.90;;;;;;5032758;28;20399;-49
2021/05/30 03:13:42;;;;;;;20.75;13.75;;;7.70;99.90;;;;;;5032620;28;20223;-51
2021/05/30 03:16:07;;;;;;;20.90;13.23;;;7.70;99.90;;;;;;5032689;28;20034;-47
2021/05/30 03:18:33;;;;;;;19.60;12.75;;;7.70;99.90;;;;;;5032052;28;20029;-51
2021/05/30 03:20:58;;;;;;;24.10;13.52;;;7.80;99.90;;;;;;5032487;28;20065;-48
2021/05/30 03:23:24;;;;;;;22.52;13.48;;;7.70;99.90;;;;;;5032541;28;20108;-49
2021/05/30 03:25:49;;;;;;;23.13;14.07;;;7.70;99.90;;;;;;5032485;28;20037;-47
2021/05/30 03:28:15;;;;;;;22.60;14.65;;;7.70;99.90;;;;;;5031990;28;20044;-49
2021/05/30 03:30:40;;;;;;;19.30;13.70;;;7.80;99.90;;;;;;5032516;28;20028;-47
2021/05/30 03:33:06;;;;;;;19.63;13.68;;;7.70;99.90;;;;;;5032549;28;20048;-48
2021/05/30 03:35:31;;;;;;;21.42;12.25;;;7.70;99.90;;;;;;5032601;28;20506;-48
2021/05/30 03:37:58;;;;;;;17.50;12.93;;;7.70;99.90;;;;;;5031887;28;20022;-50
2021/05/30 03:40:34;;;;;;;20.95;13.70;;;7.70;99.90;;;;;;5032254;28;20021;-52
2021/05/30 03:43:00;;;;;;;21.67;14.52;;;7.70;99.90;;;;;;5032630;28;20024;-48
2021/05/30 03:45:25;;;;;;;19.52;11.68;;;7.80;99.90;;;;;;5032287;28;20030;-49
2021/05/30 03:47:51;;;;;;;18.02;12.75;;;7.80;99.90;;;;;;5030384;28;20491;-50
2021/05/30 03:50:18;;;;;;;20.90;13.00;;;7.80;99.90;;;;;;5032156;28;20476;-49
2021/05/30 03:52:44;;;;;;;23.58;14.73;;;7.90;99.90;;;;;;5032269;28;20502;-47
2021/05/30 03:55:11;;;;;;;19.88;13.63;;;8.00;99.90;;;;;;5030838;28;20041;-47
2021/05/30 03:57:37;;;;;;;23.23;14.70;;;8.00;99.90;;;;;;5031862;28;20543;-47
2021/05/30 04:00:11;;;;;;;22.90;14.10;;;8.00;99.90;;;;;;5032272;28;20379;-47
2021/05/30 04:02:36;;;;;;;27.58;16.40;;;8.10;99.90;;;;;;5031879;28;20026;-47
2021/05/30 04:05:03;;;;;;;23.90;15.02;;;8.20;99.90;;;;;;5031862;28;20097;-46
2021/05/30 04:07:30;;;;;;;24.15;15.23;;;8.20;99.90;;;;;;5031216;28;20086;-47
2021/05/30 04:09:55;;;;;;;34.92;17.52;;;8.30;99.90;;;;;;5031732;28;20483;-48
2021/05/30 04:12:21;;;;;;;25.42;16.20;;;8.40;99.90;;;;;;5031688;28;20021;-47
2021/05/30 04:14:46;;;;;;;29.40;16.42;;;8.40;99.90;;;;;;5031490;28;20029;-47
2021/05/30 04:17:11;;;;;;;29.30;18.13;;;8.50;99.90;;;;;;5031543;28;20028;-47
2021/05/30 04:19:37;;;;;;;27.95;17.50;;;8.50;99.90;;;;;;5031064;28;20060;-47
2021/05/30 04:22:03;;;;;;;35.38;18.73;;;8.50;99.90;;;;;;5030461;28;20041;-47
2021/05/30 04:24:28;;;;;;;35.58;18.98;;;8.50;99.90;;;;;;5031216;28;20502;-48
2021/05/30 04:26:54;;;;;;;31.27;18.27;;;8.50;99.90;;;;;;5031317;28;20208;-49
2021/05/30 04:29:19;;;;;;;26.95;16.98;;;8.50;99.90;;;;;;5029402;28;20040;-48
2021/05/30 04:31:45;;;;;;;30.05;17.55;;;8.50;99.90;;;;;;5031262;28;20064;-47
2021/05/30 04:34:11;;;;;;;26.15;16.10;;;8.60;99.90;;;;;;5031332;28;20040;-49
2021/05/30 04:36:36;;;;;;;28.67;17.33;;;8.60;99.90;;;;;;5031596;28;20040;-50
2021/05/30 04:39:02;;;;;;;25.90;16.98;;;8.70;99.90;;;;;;5030512;28;20061;-48
2021/05/30 04:41:28;;;;;;;28.35;17.23;;;8.70;99.90;;;;;;5031405;28;20095;-47
2021/05/30 04:43:53;;;;;;;27.90;16.80;;;8.80;99.90;;;;;;5029979;28;20033;-47
2021/05/30 04:46:19;;;;;;;29.63;18.50;;;8.80;99.90;;;;;;5031165;28;20030;-49
2021/05/30 04:48:44;;;;;;;30.17;19.58;;;8.90;99.90;;;;;;5030479;28;20037;-48
2021/05/30 04:51:13;;;;;;;34.63;18.23;;;8.90;99.90;;;;;;5030755;28;20052;-48
2021/05/30 04:53:40;;;;;;;28.38;18.77;;;9.00;99.90;;;;;;5030925;28;20068;-50
2021/05/30 04:56:06;;;;;;;31.92;19.15;;;9.00;99.90;;;;;;5030857;28;20021;-51
2021/05/30 04:58:33;;;;;;;25.98;17.60;;;9.00;99.90;;;;;;5012592;28;20026;-49
2021/05/30 05:00:59;;;;;;;30.27;18.98;;;9.00;99.90;;;;;;5030637;28;20049;-47
2021/05/30 05:03:24;;;;;;;26.42;17.00;;;9.10;99.90;;;;;;5030878;28;20059;-49
2021/05/30 05:05:54;;;;;;;26.15;16.92;;;9.10;99.90;;;;;;5030657;28;20056;-48
2021/05/30 05:08:20;;;;;;;30.80;18.45;;;9.20;99.90;;;;;;5028754;28;20021;-48
2021/05/30 05:10:46;;;;;;;33.17;18.98;;;9.20;99.90;;;;;;5030449;28;20025;-47
2021/05/30 05:13:13;;;;;;;25.60;17.73;;;9.20;99.90;;;;;;5030291;28;20026;-49
2021/05/30 05:15:38;;;;;;;25.20;15.75;;;9.30;99.90;;;;;;5030399;28;20116;-48
2021/05/30 05:18:15;;;;;;;28.33;17.17;;;9.30;99.90;;;;;;5029885;28;20108;-47
2021/05/30 05:20:40;;;;;;;28.15;18.27;;;9.40;99.90;;;;;;5030118;28;20021;-50
2021/05/30 05:23:06;;;;;;;32.97;19.25;;;9.40;99.90;;;;;;5030139;28;20116;-47
2021/05/30 05:25:34;;;;;;;29.65;17.52;;;9.40;99.90;;;;;;5030317;28;20017;-47
2021/05/30 05:28:00;;;;;;;27.10;17.50;;;9.50;99.90;;;;;;5029780;28;20018;-49
2021/05/30 05:30:26;;;;;;;27.60;16.75;;;9.50;99.90;;;;;;5030150;28;20056;-48
2021/05/30 05:32:52;;;;;;;28.65;18.25;;;9.50;99.90;;;;;;5028865;28;20029;-48
2021/05/30 05:35:17;;;;;;;27.23;17.88;;;9.50;99.90;;;;;;5029938;28;20129;-48
2021/05/30 05:37:43;;;;;;;29.85;18.20;;;9.50;99.90;;;;;;5029474;28;20048;-47
2021/05/30 05:40:09;;;;;;;30.08;17.52;;;9.60;99.90;;;;;;5029862;28;20095;-47
2021/05/30 05:42:36;;;;;;;27.30;17.83;;;9.60;99.90;;;;;;5030334;28;20029;-47
2021/05/30 05:45:02;;;;;;;25.13;17.33;;;9.70;99.90;;;;;;5030068;28;20025;-50
2021/05/30 05:47:28;;;;;;;25.35;16.52;;;9.70;99.90;;;;;;5029651;28;20476;-49
2021/05/30 05:49:53;;;;;;;28.17;17.67;;;9.70;99.90;;;;;;5028537;28;20040;-47
2021/05/30 05:52:19;;;;;;;26.60;16.67;;;9.80;99.90;;;;;;5029862;28;20495;-47
2021/05/30 05:54:44;;;;;;;24.42;15.95;;;9.90;99.90;;;;;;5029957;28;20026;-48
2021/05/30 05:57:10;;;;;;;22.85;16.00;;;9.90;99.90;;;;;;5029815;28;20033;-47
2021/05/30 05:59:35;;;;;;;22.55;15.00;;;9.90;99.90;;;;;;5029347;28;20136;-50
2021/05/30 06:02:00;;;;;;;32.15;17.55;;;10.00;99.90;;;;;;5029556;28;20096;-49
2021/05/30 06:04:26;;;;;;;29.15;16.10;;;10.10;99.90;;;;;;5029546;28;20021;-50
2021/05/30 06:06:51;;;;;;;26.20;17.80;;;10.10;99.90;;;;;;5029568;28;20026;-47
2021/05/30 06:09:17;;;;;;;23.98;14.90;;;10.20;99.90;;;;;;5029215;28;20092;-48
2021/05/30 06:11:43;;;;;;;30.98;17.77;;;10.30;99.90;;;;;;5029448;28;20079;-47
2021/05/30 06:14:09;;;;;;;28.30;16.38;;;10.30;99.90;;;;;;5029373;28;20025;-47
2021/05/30 06:16:34;;;;;;;26.63;15.85;;;10.40;99.90;;;;;;5028236;28;20037;-46
2021/05/30 06:19:00;;;;;;;25.30;16.33;;;10.50;99.90;;;;;;5027315;28;20021;-47
2021/05/30 06:21:26;;;;;;;27.63;16.75;;;10.50;99.90;;;;;;5027771;28;20479;-47
2021/05/30 06:23:52;;;;;;;31.77;16.10;;;10.60;99.90;;;;;;5027922;28;20383;-47
2021/05/30 06:26:17;;;;;;;27.23;14.90;;;10.70;99.90;;;;;;5027752;28;20036;-47
2021/05/30 06:28:43;;;;;;;24.42;13.95;;;10.70;99.90;;;;;;5028514;28;20268;-47
2021/05/30 06:31:08;;;;;;;26.30;15.07;;;10.80;99.90;;;;;;5027744;28;20423;-48
2021/05/30 06:33:34;;;;;;;26.30;15.98;;;10.90;99.90;;;;;;5028888;28;20022;-48
2021/05/30 06:35:59;;;;;;;35.63;18.00;;;11.00;99.90;;;;;;5029058;28;20033;-51
2021/05/30 06:38:25;;;;;;;25.80;15.98;;;11.00;99.90;;;;;;5028371;28;20350;-48
2021/05/30 06:40:50;;;;;;;26.95;15.35;;;11.10;99.90;;;;;;5028867;28;20029;-51
2021/05/30 06:43:16;;;;;;;27.02;15.63;;;11.20;99.90;;;;;;5028944;28;20061;-48
2021/05/30 06:45:41;;;;;;;28.65;15.80;;;11.30;99.90;;;;;;5028819;28;20111;-49
2021/05/30 06:48:07;;;;;;;29.88;15.00;;;11.40;99.90;;;;;;5028211;28;20032;-48
2021/05/30 06:50:33;;;;;;;18.80;13.45;;;11.50;99.90;;;;;;5028833;28;20072;-51
2021/05/30 06:52:58;;;;;;;22.27;15.00;;;11.60;99.90;;;;;;5029013;28;20497;-48
2021/05/30 06:55:24;;;;;;;28.80;15.00;;;11.80;99.90;;;;;;5028840;28;20056;-50
2021/05/30 06:57:50;;;;;;;22.30;14.00;;;11.90;99.90;;;;;;5028394;28;20498;-49
2021/05/30 07:00:16;;;;;;;29.40;16.30;;;12.00;99.90;;;;;;5028954;28;20029;-48
2021/05/30 07:02:42;;;;;;;25.27;15.23;;;12.10;99.90;;;;;;5028878;28;20505;-48
2021/05/30 07:05:09;;;;;;;25.83;14.63;;;12.20;99.90;;;;;;5029052;28;20139;-49
2021/05/30 07:07:34;;;;;;;27.27;15.93;;;12.30;99.90;;;;;;5028473;28;20516;-48
2021/05/30 07:10:00;;;;;;;22.92;14.18;;;12.40;99.90;;;;;;5029399;28;20034;-51
2021/05/30 07:12:25;;;;;;;27.88;15.27;;;12.50;99.90;;;;;;5028949;28;20176;-48
2021/05/30 07:14:51;;;;;;;33.67;15.50;;;12.70;99.90;;;;;;5029035;28;20083;-48
2021/05/30 07:17:16;;;;;;;25.13;14.75;;;12.80;99.90;;;;;;5028803;28;20432;-48
2021/05/30 07:19:46;;;;;;;23.23;13.40;;;12.80;99.90;;;;;;5028622;28;20096;-49
2021/05/30 07:22:11;;;;;;;24.25;14.82;;;12.90;99.90;;;;;;5028842;28;20144;-48
2021/05/30 07:24:37;;;;;;;20.38;13.75;;;13.10;99.90;;;;;;5028858;28;20092;-48
2021/05/30 07:27:02;;;;;;;25.33;14.25;;;13.30;99.90;;;;;;5027448;28;20018;-49
2021/05/30 07:29:28;;;;;;;30.30;16.20;;;13.40;99.90;;;;;;5028269;28;20025;-48
2021/05/30 07:31:53;;;;;;;22.15;14.30;;;13.50;99.90;;;;;;5028613;28;20121;-49
2021/05/30 07:34:19;;;;;;;26.58;15.43;;;13.60;99.90;;;;;;5028759;28;20056;-49
2021/05/30 07:36:45;;;;;;;23.73;14.75;;;13.80;99.90;;;;;;5028500;28;20055;-47
2021/05/30 07:39:10;;;;;;;24.13;15.05;;;13.80;99.90;;;;;;5027742;28;20063;-47
2021/05/30 07:41:36;;;;;;;19.20;13.82;;;13.90;99.90;;;;;;5028767;28;20116;-48
2021/05/30 07:44:02;;;;;;;20.73;14.20;;;14.10;99.90;;;;;;5028401;28;20017;-47
2021/05/30 07:46:27;;;;;;;23.55;15.45;;;14.30;99.90;;;;;;5028170;28;20028;-48
2021/05/30 07:48:53;;;;;;;19.65;12.02;;;14.50;99.90;;;;;;5027409;28;20101;-49
2021/05/30 07:51:18;;;;;;;16.27;12.32;;;14.60;99.90;;;;;;5028200;28;20348;-47
2021/05/30 07:53:44;;;;;;;24.70;14.95;;;14.90;99.90;;;;;;5028164;28;20038;-50
2021/05/30 07:56:11;;;;;;;23.63;14.25;;;15.00;99.90;;;;;;5029697;28;20041;-48
2021/05/30 07:58:37;;;;;;;15.82;11.10;;;15.20;99.90;;;;;;5029937;28;20040;-50
2021/05/30 08:01:02;;;;;;;16.63;12.15;;;15.40;99.90;;;;;;5031676;28;20029;-47
2021/05/30 08:03:28;;;;;;;20.88;11.82;;;15.70;99.90;;;;;;5031866;28;20087;-47
2021/05/30 08:05:54;;;;;;;15.82;11.65;;;15.80;99.90;;;;;;5031737;28;20090;-47
2021/05/30 08:08:21;;;;;;;16.40;10.93;;;16.10;99.90;;;;;;5031276;28;20083;-49
2021/05/30 08:10:48;;;;;;;16.27;10.65;;;16.50;99.90;;;;;;5031998;28;20021;-48
2021/05/30 08:13:14;;;;;;;13.00;9.60;;;16.80;99.90;;;;;;5031876;28;20187;-48
2021/05/30 08:15:40;;;;;;;13.02;9.48;;;17.40;99.90;;;;;;5031489;28;20183;-50
2021/05/30 08:18:05;;;;;;;14.98;8.25;;;18.60;99.90;;;;;;5029766;28;20589;-48
2021/05/30 08:20:31;;;;;;;14.32;9.35;;;19.70;99.90;;;;;;5031559;28;20502;-51
2021/05/30 08:22:57;;;;;;;10.80;6.70;;;20.90;99.90;;;;;;5031445;28;20048;-51
2021/05/30 08:25:23;;;;;;;10.27;7.57;;;22.10;97.40;;;;;;5031281;28;20502;-51
2021/05/30 08:27:49;;;;;;;8.63;6.63;;;22.70;90.40;;;;;;5029379;28;20024;-51
2021/05/30 08:30:16;;;;;;;14.13;7.57;;;23.90;84.60;;;;;;5031187;28;20025;-51
2021/05/30 08:32:42;;;;;;;10.90;7.10;;;24.50;75.20;;;;;;5031334;28;20038;-52
2021/05/30 08:35:08;;;;;;;10.65;6.72;;;24.80;73.50;;;;;;5031021;28;20033;-52
2021/05/30 08:37:41;;;;;;;8.80;6.40;;;25.30;68.70;;;;;;5030664;28;20108;-52
2021/05/30 08:40:07;;;;;;;11.32;6.32;;;25.60;67.30;;;;;;5031314;28;20422;-51
2021/05/30 08:42:32;;;;;;;8.55;6.28;;;26.00;66.70;;;;;;5031390;28;20036;-51
2021/05/30 08:44:58;;;;;;;9.07;6.53;;;25.90;64.80;;;;;;5031272;28;20021;-51
2021/05/30 08:47:24;;;;;;;12.55;6.97;;;25.70;64.30;;;;;;5030633;28;20025;-51
2021/05/30 08:49:50;;;;;;;9.50;6.60;;;25.20;63.70;;;;;;5030842;28;20037;-51
2021/05/30 08:52:16;;;;;;;9.20;5.70;;;25.00;64.80;;;;;;5030822;28;20475;-50
2021/05/30 08:54:42;;;;;;;11.00;7.38;;;25.30;66.00;;;;;;5030728;28;20033;-51
2021/05/30 08:57:08;;;;;;;8.15;6.60;;;25.80;61.10;;;;;;5031239;28;20112;-51
2021/05/30 08:59:35;;;;;;;7.10;5.30;;;25.30;63.00;;;;;;5030616;28;20113;-51
2021/05/30 09:02:09;;;;;;;7.18;5.97;;;24.70;63.80;;;;;;5030743;28;20525;-51
2021/05/30 09:04:40;;;;;;;6.70;5.82;;;23.90;67.10;;;;;;5030730;28;20079;-51
2021/05/30 09:07:08;;;;;;;6.82;5.32;;;24.20;66.20;;;;;;5030233;28;20036;-51
2021/05/30 09:09:40;;;;;;;8.68;5.20;;;25.00;64.30;;;;;;5030387;28;20439;-51
2021/05/30 09:12:40;;;;;;;6.95;4.63;;;25.70;62.20;;;;;;5030659;28;20116;-51
2021/05/30 09:15:14;;;;;;;7.15;5.40;;;26.60;62.30;;;;;;5030769;28;20024;-52
2021/05/30 09:17:40;;;;;;;9.52;5.90;;;26.40;57.10;;;;;;5030178;28;20615;-52
2021/05/30 09:20:07;;;;;;;7.20;4.07;;;26.40;56.40;;;;;;5030457;28;20036;-53
2021/05/30 09:22:42;;;;;;;10.00;5.28;;;26.10;59.50;;;;;;5030539;28;20049;-51
2021/05/30 09:25:16;;;;;;;7.38;5.38;;;25.40;58.90;;;;;;5030339;28;20072;-51
2021/05/30 09:27:46;;;;;;;6.18;5.25;;;24.50;61.70;;;;;;5029673;28;20052;-51
2021/05/30 09:30:24;;;;;;;8.32;4.95;;;24.80;60.00;;;;;;5030288;28;20032;-51
2021/05/30 09:32:53;;;;;;;6.93;6.18;;;24.60;59.40;;;;;;5029876;28;20032;-49
2021/05/30 09:35:20;;;;;;;6.68;5.20;;;23.70;62.30;;;;;;5030059;28;20032;-51
2021/05/30 09:38:03;;;;;;;6.25;5.10;;;23.40;62.70;;;;;;5029554;28;20067;-50
2021/05/30 09:40:44;;;;;;;6.18;5.13;;;23.80;63.20;;;;;;5030010;28;20053;-51
2021/05/30 09:43:16;;;;;;;7.35;5.30;;;25.50;63.20;;;;;;5029752;28;20105;-51
2021/05/30 09:45:59;;;;;;;5.43;4.60;;;26.90;58.50;;;;;;5029823;28;20071;-52
2021/05/30 09:48:25;;;;;;;6.57;4.10;;;27.60;56.30;;;;;;5029326;28;20124;-51
2021/05/30 09:51:07;;;;;;;8.68;3.97;;;29.70;53.00;;;;;;5029965;28;20104;-53
2021/05/30 09:53:54;;;;;;;6.68;3.90;;;30.10;52.30;;;;;;5029753;28;20108;-52
2021/05/30 09:56:37;;;;;;;4.78;3.60;;;30.60;49.70;;;;;;5029217;28;20523;-52
2021/05/30 09:59:24;;;;;;;7.28;4.72;;;31.50;45.90;;;;;;5029195;28;20030;-52
2021/05/30 10:01:59;;;;;;;5.53;3.83;;;31.70;45.60;;;;;;5029443;28;20036;-53
2021/05/30 10:04:32;;;;;;;5.72;3.83;;;32.70;45.70;;;;;;5028123;28;20053;-53
2021/05/30 10:06:59;;;;;;;5.30;3.75;;;31.80;45.50;;;;;;5029361;28;20021;-51
2021/05/30 10:09:27;;;;;;;7.13;3.58;;;31.70;45.30;;;;;;5027598;28;20018;-51
2021/05/30 10:11:55;;;;;;;7.97;4.43;;;31.80;46.10;;;;;;5029403;28;20159;-53
2021/05/30 10:14:20;;;;;;;6.38;3.83;;;31.20;43.50;;;;;;5029180;28;20437;-51
2021/05/30 10:16:46;;;;;;;5.43;4.00;;;32.00;46.00;;;;;;5029170;28;20120;-51
2021/05/30 10:19:27;;;;;;;6.65;3.60;;;31.30;44.20;;;;;;5028095;28;20060;-51
2021/05/30 10:21:54;;;;;;;5.18;3.70;;;29.80;46.30;;;;;;5028969;28;20022;-51
2021/05/30 10:24:21;;;;;;;5.97;4.38;;;28.80;47.30;;;;;;5029137;28;20136;-51
2021/05/30 10:27:29;;;;;;;6.72;4.22;;;29.60;47.40;;;;;;5029084;28;20304;-52
2021/05/30 10:30:10;;;;;;;9.65;4.65;;;30.00;47.10;;;;;;5029319;28;20061;-52
2021/05/30 10:32:37;;;;;;;4.85;3.38;;;29.70;43.60;;;;;;5029240;28;20021;-53
2021/05/30 10:35:21;;;;;;;6.13;3.53;;;28.70;45.60;;;;;;5029055;28;20033;-51
2021/05/30 10:37:54;;;;;;;12.10;5.05;;;28.60;48.50;;;;;;5028571;28;20091;-51
2021/05/30 10:40:25;;;;;;;7.85;4.18;;;28.20;47.80;;;;;;5028545;28;20148;-51
2021/05/30 10:43:09;;;;;;;5.60;3.60;;;27.10;52.00;;;;;;5027546;28;20487;-51
2021/05/30 10:45:44;;;;;;;6.05;3.53;;;27.40;50.20;;;;;;5029149;28;20026;-52
2021/05/30 10:48:18;;;;;;;6.80;3.47;;;27.40;49.50;;;;;;5026919;28;20026;-52
2021/05/30 10:50:55;;;;;;;5.68;3.55;;;27.90;48.30;;;;;;5027297;28;20268;-51
2021/05/30 10:53:36;;;;;;;7.35;3.92;;;27.70;47.50;;;;;;5028724;28;20029;-52
2021/05/30 10:56:24;;;;;;;4.93;3.28;;;28.40;47.30;;;;;;5029044;28;20025;-52
2021/05/30 10:59:16;;;;;;;6.05;3.10;;;28.50;47.20;;;;;;5028072;28;20026;-52
2021/05/30 11:01:44;;;;;;;4.28;3.53;;;28.00;47.00;;;;;;5027143;28;20049;-51
2021/05/30 11:04:31;;;;;;;6.00;3.30;;;26.70;49.10;;;;;;5028586;28;20499;-51
2021/05/30 11:07:05;;;;;;;5.65;3.70;;;25.90;49.50;;;;;;5027225;28;20029;-51
2021/05/30 11:09:59;;;;;;;6.55;3.28;;;26.50;51.20;;;;;;5027972;28;20545;-51
2021/05/30 11:12:30;;;;;;;4.18;3.50;;;26.10;49.30;;;;;;5029165;28;20028;-52
2021/05/30 11:15:11;;;;;;;3.92;2.80;;;25.70;49.40;;;;;;5027127;28;20021;-51
2021/05/30 11:17:41;;;;;;;4.32;3.25;;;25.10;48.40;;;;;;5028130;28;20526;-50
2021/05/30 11:20:13;;;;;;;4.82;3.47;;;25.50;49.60;;;;;;5027756;28;20128;-51
2021/05/30 11:22:58;;;;;;;3.97;3.05;;;25.30;50.10;;;;;;5028346;28;20021;-51
2021/05/30 11:25:29;;;;;;;4.38;3.60;;;24.80;49.10;;;;;;5026909;28;20502;-51
2021/05/30 11:28:05;;;;;;;5.43;3.10;;;24.40;51.20;;;;;;5027729;28;20456;-48
2021/05/30 11:30:39;;;;;;;4.68;3.08;;;24.90;51.10;;;;;;5030340;28;20116;-51
2021/05/30 11:33:06;;;;;;;4.20;3.33;;;25.60;52.60;;;;;;5032699;28;20254;-51
2021/05/30 11:35:31;;;;;;;4.50;2.88;;;26.00;52.60;;;;;;5032241;28;20029;-51
2021/05/30 11:37:58;;;;;;;4.50;3.40;;;25.90;50.50;;;;;;5031460;28;20037;-51
2021/05/30 11:40:24;;;;;;;5.85;3.80;;;25.50;48.70;;;;;;5031971;28;20031;-51
2021/05/30 11:42:50;;;;;;;5.25;3.70;;;25.10;51.60;;;;;;5030623;28;20033;-52
2021/05/30 11:45:37;;;;;;;4.20;3.30;;;25.00;51.80;;;;;;5031911;28;20025;-50
2021/05/30 11:48:03;;;;;;;5.20;3.63;;;25.70;52.50;;;;;;5029842;28;20067;-51
2021/05/30 11:50:37;;;;;;;5.10;3.40;;;27.30;50.50;;;;;;5030186;28;20037;-52
2021/05/30 11:53:07;;;;;;;3.55;3.08;;;28.60;47.80;;;;;;5030146;28;20044;-52
2021/05/30 11:55:33;;;;;;;6.90;3.42;;;28.30;48.50;;;;;;5030209;28;20479;-49
2021/05/30 11:58:06;;;;;;;9.07;3.80;;;27.60;48.50;;;;;;5030495;28;20459;-50
2021/05/30 12:00:33;;;;;;;7.18;3.90;;;27.20;48.90;;;;;;5031937;28;20026;-50
2021/05/30 12:03:07;;;;;;;5.50;4.00;;;26.20;50.20;;;;;;5030442;28;20025;-51
2021/05/30 12:05:33;;;;;;;5.25;3.65;;;25.90;52.10;;;;;;5029865;28;20241;-51
2021/05/30 12:07:58;;;;;;;5.55;3.63;;;25.40;51.10;;;;;;5029441;28;20103;-50
2021/05/30 12:10:24;;;;;;;7.93;5.20;;;25.10;51.50;;;;;;5028341;28;20040;-49
2021/05/30 12:12:49;;;;;;;6.30;3.65;;;24.50;52.80;;;;;;5029634;28;20029;-51
2021/05/30 12:15:17;;;;;;;4.95;3.90;;;24.20;54.00;;;;;;5029991;28;20486;-48
2021/05/30 12:17:54;;;;;;;6.63;4.32;;;23.80;51.40;;;;;;5029977;28;20049;-51
2021/05/30 12:20:23;;;;;;;7.75;4.15;;;24.20;55.20;;;;;;5032602;28;20040;-48
2021/05/30 12:22:48;;;;;;;4.63;3.88;;;24.70;54.30;;;;;;5048409;28;20025;-50
2021/05/30 12:25:15;;;;;;;7.80;4.00;;;25.00;54.30;;;;;;5043051;28;20021;-51
2021/05/30 12:27:41;;;;;;;6.97;4.00;;;25.50;52.20;;;;;;5038360;28;20037;-51
2021/05/30 12:30:10;;;;;;;6.85;4.35;;;25.30;52.40;;;;;;5039773;28;20018;-50
2021/05/30 12:32:35;;;;;;;4.60;4.00;;;25.10;50.80;;;;;;5042305;28;20072;-51
2021/05/30 12:35:01;;;;;;;7.30;4.10;;;24.90;52.60;;;;;;5040528;28;20099;-51
2021/05/30 12:37:43;;;;;;;6.35;3.92;;;24.40;51.80;;;;;;5035900;28;20018;-50
2021/05/30 12:40:12;;;;;;;5.63;3.97;;;23.90;55.90;;;;;;5046576;28;20390;-50
2021/05/30 12:42:40;;;;;;;6.35;3.75;;;23.60;51.90;;;;;;5050185;28;20096;-50